MiSS Christi — WBM6513 — position and weather

sailwx.info

Track history (hours):
 
Tides and Currents Weather Stations Pressure Air Temp Water Temp Dewpoint Dewpoint Depression Visibility Wind Speed Wind Dir Waves Ship Positions

MiSS Christi

Owner: MISS CHRISTI INC, WEST HILLS, CA. More information available from US FCC via Universal Licensing System and Coast Guard Vessel Documentation Center.

Last reported at 2017-Sep-21 20:27 UTC. Time now 2017-Sep-21 23:16 UTC.
Position N 33°39' W 118°18'.

Length 15 m; draft 1.5 m.

Type: Passenger vessel. MMSI: 367311590.

Date/timePositionNaut miles runAvg speedWind from/ knotsBaromVisibWave heightAir tempDewpointWater temp
2017-Sep-21 20:27N 33°39' W 118°18'612.0
2017-Sep-21 20:00N 33°44' W 118°16'0 0.4
2017-Sep-21 19:30N 33°44' W 118°16'0 0.1
2017-Sep-21 19:00N 33°44' W 118°16'0 0.2
2017-Sep-21 18:30N 33°44' W 118°16'4 1.1
2017-Sep-21 14:46N 33°40' W 118°17'413.5
2017-Sep-21 14:30N 33°44' W 118°16'1 1.4
2017-Sep-21 14:00N 33°44' W 118°16'0 0.1
2017-Sep-21 13:30N 33°44' W 118°16'0 0.0
2017-Sep-21 13:00N 33°44' W 118°16'0 0.0
2017-Sep-21 12:30N 33°44' W 118°16'0 0.0
2017-Sep-21 12:00N 33°44' W 118°16'0 0.0
2017-Sep-21 11:30N 33°44' W 118°16'0 0.0
2017-Sep-21 11:00N 33°44' W 118°16'0 0.0
2017-Sep-21 10:30N 33°44' W 118°16'0 0.1
2017-Sep-21 10:00N 33°44' W 118°16'0 0.1
2017-Sep-21 09:30N 33°44' W 118°16'0 0.0
2017-Sep-21 09:01N 33°44' W 118°16'0 0.0
2017-Sep-21 08:30N 33°44' W 118°16'0 0.0
2017-Sep-21 08:00N 33°44' W 118°16'0 0.0
2017-Sep-21 07:30N 33°44' W 118°16'0 0.0
2017-Sep-21 07:00N 33°44' W 118°16'0 0.0
2017-Sep-21 06:30N 33°44' W 118°16'0 0.0
2017-Sep-21 05:59N 33°44' W 118°16'0 0.0
2017-Sep-21 05:30N 33°44' W 118°16'0 0.0
2017-Sep-21 05:00N 33°44' W 118°16'0 0.0
2017-Sep-21 04:30N 33°44' W 118°16'0 0.0
2017-Sep-21 04:00N 33°44' W 118°16'0 0.0
2017-Sep-21 03:30N 33°44' W 118°16'0 0.0
2017-Sep-21 03:00N 33°44' W 118°16'0 0.0
2017-Sep-21 02:30N 33°44' W 118°16'0 0.0
2017-Sep-21 02:00N 33°44' W 118°16'0 0.0
2017-Sep-21 01:30N 33°44' W 118°16'0 0.0
2017-Sep-21 01:00N 33°44' W 118°16'0 0.0
2017-Sep-21 00:30N 33°44' W 118°16'1 1.2
2017-Sep-21 00:00N 33°44' W 118°16'2 0.3
2017-Sep-20 14:59N 33°41' W 118°16'3 2.9
2017-Sep-20 14:00N 33°44' W 118°16'0 0.0
2017-Sep-19 23:36N 33°44' W 118°16'0 3.4
2017-Sep-19 23:30N 33°44' W 118°16'5 0.6
2017-Sep-19 15:00N 33°39' W 118°18'510.1
2017-Sep-19 14:30N 33°44' W 118°16'0 0.1
2017-Sep-19 14:00N 33°44' W 118°16'0 0.0
2017-Sep-19 13:30N 33°44' W 118°16'0 0.0
2017-Sep-19 00:02N 33°44' W 118°16'0 0.0
2017-Sep-19 00:00N 33°44' W 118°16'611.2
2017-Sep-18 23:29N 33°38' W 118°18'0 0.0
2017-Sep-18 15:03N 33°39' W 118°18'215.3
2017-Sep-18 14:57N 33°40' W 118°17'4 9.4
2017-Sep-18 14:30N 33°44' W 118°16'0 0.1
2017-Sep-18 13:59N 33°44' W 118°16'0 0.0
2017-Sep-17 21:55N 33°44' W 118°16'410.2
2017-Sep-17 21:30N 33°40' W 118°16'2 0.0
2017-Sep-15 22:10N 33°39' W 118°18'215.9
2017-Sep-15 22:00N 33°41' W 118°16'3 6.9
2017-Sep-15 21:30N 33°44' W 118°16'1 1.0
2017-Sep-15 21:00N 33°44' W 118°16'713.2
2017-Sep-15 20:28N 33°37' W 118°19'2 0.4
2017-Sep-15 15:31N 33°39' W 118°18'016.1
2017-Sep-15 15:29N 33°39' W 118°18'510.1
2017-Sep-15 15:00N 33°44' W 118°16'0 0.0
2017-Sep-15 14:30N 33°44' W 118°16'0 0.0
2017-Sep-14 23:54N 33°44' W 118°16'4 9.4
2017-Sep-14 23:30N 33°41' W 118°16'2 0.3
2017-Sep-14 15:06N 33°39' W 118°18'217.8
2017-Sep-14 15:00N 33°40' W 118°17'4 0.2
2017-Sep-13 23:51N 33°44' W 118°16'310.0
2017-Sep-13 23:31N 33°41' W 118°16'3 0.3
2017-Sep-13 15:01N 33°38' W 118°18'117.1
2017-Sep-13 14:56N 33°40' W 118°17'510.8
2017-Sep-13 14:30N 33°44' W 118°16'0 0.0
2017-Sep-12 23:56N 33°44' W 118°16'4 8.9
2017-Sep-12 23:29N 33°40' W 118°17'2 0.2
2017-Sep-12 15:00N 33°39' W 118°18'6 0.4
2017-Sep-12 00:02N 33°44' W 118°16'0 0.0
2017-Sep-12 00:00N 33°44' W 118°16'3 5.5
2017-Sep-11 23:30N 33°42' W 118°15'918.9
2017-Sep-11 23:00N 33°34' W 118°23'9 6.1
2017-Sep-11 21:30N 33°27' W 118°29'  
Track history (hours):
 
Tides and Currents Weather Stations Pressure Air Temp Water Temp Dewpoint Dewpoint Depression Visibility Wind Speed Wind Dir Waves Ship Positions

MiSS Christi

Owner: MISS CHRISTI INC, WEST HILLS, CA. More information available from US FCC via Universal Licensing System and Coast Guard Vessel Documentation Center.

Last reported at 2017-Sep-21 20:27 UTC. Time now 2017-Sep-21 23:16 UTC.
Position N 33°39' W 118°18'.

Length 15 m; draft 1.5 m.

Type: Passenger vessel. MMSI: 367311590.

Date/timePositionNaut miles runAvg speedWind from/ knotsBaromVisibWave heightAir tempDewpointWater temp
2017-Sep-21 20:27N 33°39' W 118°18'612.0
2017-Sep-21 20:00N 33°44' W 118°16'0 0.4
2017-Sep-21 19:30N 33°44' W 118°16'0 0.1
2017-Sep-21 19:00N 33°44' W 118°16'0 0.2
2017-Sep-21 18:30N 33°44' W 118°16'4 1.1
2017-Sep-21 14:46N 33°40' W 118°17'413.5
2017-Sep-21 14:30N 33°44' W 118°16'1 1.4
2017-Sep-21 14:00N 33°44' W 118°16'0 0.1
2017-Sep-21 13:30N 33°44' W 118°16'0 0.0
2017-Sep-21 13:00N 33°44' W 118°16'0 0.0
2017-Sep-21 12:30N 33°44' W 118°16'0 0.0
2017-Sep-21 12:00N 33°44' W 118°16'0 0.0
2017-Sep-21 11:30N 33°44' W 118°16'0 0.0
2017-Sep-21 11:00N 33°44' W 118°16'0 0.0
2017-Sep-21 10:30N 33°44' W 118°16'0 0.1
2017-Sep-21 10:00N 33°44' W 118°16'0 0.1
2017-Sep-21 09:30N 33°44' W 118°16'0 0.0
2017-Sep-21 09:01N 33°44' W 118°16'0 0.0
2017-Sep-21 08:30N 33°44' W 118°16'0 0.0
2017-Sep-21 08:00N 33°44' W 118°16'0 0.0
2017-Sep-21 07:30N 33°44' W 118°16'0 0.0
2017-Sep-21 07:00N 33°44' W 118°16'0 0.0
2017-Sep-21 06:30N 33°44' W 118°16'0 0.0
2017-Sep-21 05:59N 33°44' W 118°16'0 0.0
2017-Sep-21 05:30N 33°44' W 118°16'0 0.0
2017-Sep-21 05:00N 33°44' W 118°16'0 0.0
2017-Sep-21 04:30N 33°44' W 118°16'0 0.0
2017-Sep-21 04:00N 33°44' W 118°16'0 0.0
2017-Sep-21 03:30N 33°44' W 118°16'0 0.0
2017-Sep-21 03:00N 33°44' W 118°16'0 0.0
2017-Sep-21 02:30N 33°44' W 118°16'0 0.0
2017-Sep-21 02:00N 33°44' W 118°16'0 0.0
2017-Sep-21 01:30N 33°44' W 118°16'0 0.0
2017-Sep-21 01:00N 33°44' W 118°16'0 0.0
2017-Sep-21 00:30N 33°44' W 118°16'1 1.2
2017-Sep-21 00:00N 33°44' W 118°16'2 0.3
2017-Sep-20 14:59N 33°41' W 118°16'3 2.9
2017-Sep-20 14:00N 33°44' W 118°16'0 0.0
2017-Sep-19 23:36N 33°44' W 118°16'0 3.4
2017-Sep-19 23:30N 33°44' W 118°16'5 0.6
2017-Sep-19 15:00N 33°39' W 118°18'510.1
2017-Sep-19 14:30N 33°44' W 118°16'0 0.1
2017-Sep-19 14:00N 33°44' W 118°16'0 0.0
2017-Sep-19 13:30N 33°44' W 118°16'0 0.0
2017-Sep-19 00:02N 33°44' W 118°16'0 0.0
2017-Sep-19 00:00N 33°44' W 118°16'611.2
2017-Sep-18 23:29N 33°38' W 118°18'0 0.0
2017-Sep-18 15:03N 33°39' W 118°18'215.3
2017-Sep-18 14:57N 33°40' W 118°17'4 9.4
2017-Sep-18 14:30N 33°44' W 118°16'0 0.1
2017-Sep-18 13:59N 33°44' W 118°16'0 0.0
2017-Sep-17 21:55N 33°44' W 118°16'410.2
2017-Sep-17 21:30N 33°40' W 118°16'2 0.0
2017-Sep-15 22:10N 33°39' W 118°18'215.9
2017-Sep-15 22:00N 33°41' W 118°16'3 6.9
2017-Sep-15 21:30N 33°44' W 118°16'1 1.0
2017-Sep-15 21:00N 33°44' W 118°16'713.2
2017-Sep-15 20:28N 33°37' W 118°19'2 0.4
2017-Sep-15 15:31N 33°39' W 118°18'016.1
2017-Sep-15 15:29N 33°39' W 118°18'510.1
2017-Sep-15 15:00N 33°44' W 118°16'0 0.0
2017-Sep-15 14:30N 33°44' W 118°16'0 0.0
2017-Sep-14 23:54N 33°44' W 118°16'4 9.4
2017-Sep-14 23:30N 33°41' W 118°16'2 0.3
2017-Sep-14 15:06N 33°39' W 118°18'217.8
2017-Sep-14 15:00N 33°40' W 118°17'4 0.2
2017-Sep-13 23:51N 33°44' W 118°16'310.0
2017-Sep-13 23:31N 33°41' W 118°16'3 0.3
2017-Sep-13 15:01N 33°38' W 118°18'117.1
2017-Sep-13 14:56N 33°40' W 118°17'510.8
2017-Sep-13 14:30N 33°44' W 118°16'0 0.0
2017-Sep-12 23:56N 33°44' W 118°16'4 8.9
2017-Sep-12 23:29N 33°40' W 118°17'2 0.2
2017-Sep-12 15:00N 33°39' W 118°18'6 0.4
2017-Sep-12 00:02N 33°44' W 118°16'0 0.0
2017-Sep-12 00:00N 33°44' W 118°16'3 5.5
2017-Sep-11 23:30N 33°42' W 118°15'918.9
2017-Sep-11 23:00N 33°34' W 118°23'9 6.1
2017-Sep-11 21:30N 33°27' W 118°29'  

Dump ship's entire track history